Time;durP1;ratioP1;P1;durP2;ratioP2;P2;SDS_P1;SDS_P2;PMS_P1;PMS_P2;Temp;Humidity;BMP_temperature;BMP_pressure;BME280_temperature;BME280_humidity;BME280_pressure;Samples;Min_cycle;Max_cycle;Signal;HPM_P1;HPM_P2
2023/07/11 00:00:59;;;;;;;5.83;2.20;;;22.30;99.90;;;;;;5010780;28;20803;-82
2023/07/11 00:03:27;;;;;;;2.93;1.73;;;22.30;99.90;;;;;;5004071;28;20430;-83
2023/07/11 00:06:04;;;;;;;4.40;2.20;;;22.30;99.90;;;;;;5012277;28;20212;-84
2023/07/11 00:08:30;;;;;;;9.70;2.30;;;22.20;99.90;;;;;;5007033;28;22277;-83
2023/07/11 00:10:55;;;;;;;5.40;2.20;;;22.20;99.90;;;;;;5006169;28;20437;-83
2023/07/11 00:13:26;;;;;;;4.33;2.10;;;22.10;99.90;;;;;;5009163;28;20197;-83
2023/07/11 00:16:05;;;;;;;3.80;2.30;;;22.10;99.90;;;;;;5024781;28;20205;-83
2023/07/11 00:18:30;;;;;;;5.37;2.50;;;22.10;99.90;;;;;;5003973;28;20518;-83
2023/07/11 00:20:59;;;;;;;5.50;2.43;;;22.00;99.90;;;;;;5006387;28;20482;-82
2023/07/11 00:23:28;;;;;;;6.67;2.80;;;22.00;99.90;;;;;;5005383;28;20197;-82
2023/07/11 00:25:59;;;;;;;5.53;2.20;;;21.90;99.90;;;;;;5002754;28;20445;-83
2023/07/11 00:28:27;;;;;;;8.37;2.50;;;21.90;99.90;;;;;;5005966;28;20440;-83
2023/07/11 00:30:58;;;;;;;10.60;3.20;;;21.90;99.90;;;;;;5006384;28;20447;-84
2023/07/11 00:33:26;;;;;;;4.80;3.13;;;21.80;99.90;;;;;;5009145;28;21016;-82
2023/07/11 00:35:53;;;;;;;4.20;2.80;;;21.70;99.90;;;;;;5007996;28;20445;-83
2023/07/11 00:38:26;;;;;;;7.03;2.63;;;21.70;99.90;;;;;;5006235;28;20469;-83
2023/07/11 00:40:55;;;;;;;3.70;2.30;;;21.70;99.90;;;;;;5003053;28;20442;-84
2023/07/11 00:43:23;;;;;;;6.20;2.87;;;21.60;99.90;;;;;;5007175;28;20449;-82
2023/07/11 00:46:15;;;;;;;7.83;2.30;;;21.60;99.90;;;;;;5012825;28;20446;-83
2023/07/11 00:49:00;;;;;;;6.60;3.03;;;21.60;99.90;;;;;;5010332;28;20466;-83
2023/07/11 00:51:32;;;;;;;7.67;2.87;;;21.50;99.90;;;;;;5008186;28;20810;-83
2023/07/11 00:53:59;;;;;;;8.00;2.97;;;21.50;99.90;;;;;;5010562;28;20493;-83
2023/07/11 00:56:29;;;;;;;3.73;2.77;;;21.50;99.90;;;;;;5020909;28;20449;-83
2023/07/11 00:58:56;;;;;;;6.13;3.10;;;21.40;99.90;;;;;;5007236;28;21070;-83
2023/07/11 01:01:23;;;;;;;9.57;2.90;;;21.40;99.90;;;;;;5012231;28;20560;-83
2023/07/11 01:03:53;;;;;;;5.03;2.70;;;21.30;99.90;;;;;;5015302;28;20448;-82
2023/07/11 01:06:25;;;;;;;11.57;3.30;;;21.30;99.90;;;;;;5009484;28;20439;-83
2023/07/11 01:08:53;;;;;;;3.73;2.70;;;21.30;99.90;;;;;;5006945;28;20453;-83
2023/07/11 01:11:23;;;;;;;6.00;2.57;;;21.30;99.90;;;;;;5003205;28;20462;-84
2023/07/11 01:14:07;;;;;;;6.23;2.20;;;21.30;99.90;;;;;;5005769;28;20475;-83
2023/07/11 01:16:43;;;;;;;6.67;2.57;;;21.20;99.90;;;;;;5008038;28;20836;-83
2023/07/11 01:19:12;;;;;;;12.93;3.00;;;21.20;99.90;;;;;;5009062;28;20991;-83
2023/07/11 01:21:58;;;;;;;4.60;2.77;;;21.10;99.90;;;;;;5006369;28;20450;-82
2023/07/11 01:24:26;;;;;;;8.10;3.30;;;21.10;99.90;;;;;;5002813;28;20435;-83
2023/07/11 01:26:56;;;;;;;6.83;2.50;;;21.00;99.90;;;;;;5004910;28;20465;-83
2023/07/11 01:29:24;;;;;;;4.40;2.57;;;21.00;99.90;;;;;;5018366;28;20442;-84
2023/07/11 01:31:52;;;;;;;13.53;2.80;;;20.90;99.90;;;;;;5001269;28;20470;-83
2023/07/11 01:34:27;;;;;;;6.50;3.40;;;20.90;99.90;;;;;;5003792;28;20441;-84
2023/07/11 01:37:01;;;;;;;7.37;3.10;;;20.80;99.90;;;;;;5002080;28;20445;-84
2023/07/11 01:39:29;;;;;;;6.83;2.70;;;20.80;99.90;;;;;;5009012;28;20484;-82
2023/07/11 01:41:55;;;;;;;4.23;2.53;;;20.80;99.90;;;;;;5000700;28;20519;-82
2023/07/11 01:44:22;;;;;;;6.17;3.37;;;20.70;99.90;;;;;;5006866;28;20469;-82
2023/07/11 01:46:51;;;;;;;7.27;2.73;;;20.70;99.90;;;;;;5003300;28;20197;-83
2023/07/11 01:49:28;;;;;;;5.00;3.23;;;20.70;99.90;;;;;;5000051;28;20949;-82
2023/07/11 01:52:08;;;;;;;4.77;3.27;;;20.70;99.90;;;;;;5005752;28;20460;-83
2023/07/11 01:54:33;;;;;;;10.63;2.87;;;20.60;99.90;;;;;;5000014;28;20461;-85
2023/07/11 01:57:12;;;;;;;8.10;2.40;;;20.60;99.90;;;;;;5003448;28;20543;-84
2023/07/11 01:59:40;;;;;;;7.83;3.50;;;20.60;99.90;;;;;;4999127;28;20214;-83
2023/07/11 02:02:16;;;;;;;7.00;3.30;;;20.60;99.90;;;;;;5003855;28;20467;-82
2023/07/11 02:04:44;;;;;;;5.00;3.10;;;20.50;99.90;;;;;;5001473;28;20441;-82
2023/07/11 02:07:09;;;;;;;6.07;2.90;;;20.50;99.90;;;;;;5002706;28;20445;-83
2023/07/11 02:09:37;;;;;;;7.03;2.70;;;20.50;99.90;;;;;;4997643;28;20473;-83
2023/07/11 02:12:03;;;;;;;8.93;3.10;;;20.40;99.90;;;;;;4999443;28;20218;-83
2023/07/11 02:14:29;;;;;;;4.90;3.00;;;20.30;99.90;;;;;;5003057;28;20887;-83
2023/07/11 02:16:57;;;;;;;5.80;3.50;;;20.10;1.00;;;;;;5006608;28;20259;-82
2023/07/11 02:19:24;;;;;;;7.73;3.50;;;20.00;1.00;;;;;;5001508;28;20205;-83
2023/07/11 02:21:49;;;;;;;9.77;3.83;;;19.90;1.00;;;;;;5007156;28;20461;-82
2023/07/11 02:24:17;;;;;;;6.47;3.20;;;19.80;1.00;;;;;;5006568;28;20436;-83
2023/07/11 02:26:43;;;;;;;12.40;3.13;;;19.70;1.00;;;;;;5003251;28;20219;-84
2023/07/11 02:29:09;;;;;;;5.90;3.37;;;19.50;1.00;;;;;;5001902;28;20445;-83
2023/07/11 02:31:36;;;;;;;6.73;3.30;;;19.50;1.00;;;;;;5008742;28;20460;-83
2023/07/11 02:34:02;;;;;;;8.47;3.70;;;19.40;99.90;;;;;;5003828;28;20442;-83
2023/07/11 02:36:28;;;;;;;7.70;3.30;;;19.30;99.90;;;;;;5008568;28;20430;-83
2023/07/11 02:38:54;;;;;;;6.67;3.27;;;19.30;99.90;;;;;;5007086;28;20476;-83
2023/07/11 02:41:20;;;;;;;9.47;3.27;;;19.30;99.90;;;;;;4998938;28;20469;-84
2023/07/11 02:43:47;;;;;;;7.73;3.60;;;19.20;99.90;;;;;;5006175;28;20189;-83
2023/07/11 02:46:14;;;;;;;8.20;3.33;;;19.20;99.90;;;;;;5006552;28;20569;-81
2023/07/11 02:48:40;;;;;;;8.63;3.97;;;19.10;99.90;;;;;;5003472;28;20439;-82
2023/07/11 02:51:05;;;;;;;5.63;2.80;;;19.10;99.90;;;;;;5002929;28;20460;-82
2023/07/11 02:53:31;;;;;;;3.17;2.80;;;19.00;1.00;;;;;;5004371;28;20456;-83
2023/07/11 02:55:56;;;;;;;4.90;3.27;;;19.00;1.00;;;;;;5003524;28;20186;-83
2023/07/11 02:58:22;;;;;;;5.50;3.10;;;18.90;1.00;;;;;;5003716;28;20206;-82
2023/07/11 03:00:53;;;;;;;4.93;3.50;;;18.90;1.00;;;;;;5002974;28;20226;-82
2023/07/11 03:03:19;;;;;;;11.07;3.70;;;18.90;1.00;;;;;;5003406;28;20438;-83
2023/07/11 03:05:49;;;;;;;5.97;3.50;;;18.90;1.00;;;;;;4998612;28;20425;-83
2023/07/11 03:08:15;;;;;;;7.43;3.60;;;18.80;1.00;;;;;;5003520;28;20193;-83
2023/07/11 03:10:43;;;;;;;3.70;2.70;;;18.80;1.00;;;;;;5006470;28;20434;-83
2023/07/11 03:13:09;;;;;;;7.03;3.70;;;18.80;1.00;;;;;;5009252;28;20527;-83
2023/07/11 03:15:35;;;;;;;5.70;2.87;;;18.80;1.00;;;;;;5009246;28;20482;-83
2023/07/11 03:18:01;;;;;;;8.00;4.23;;;18.90;1.00;;;;;;5005310;28;20210;-82
2023/07/11 03:20:27;;;;;;;7.10;3.23;;;18.90;1.00;;;;;;5004986;28;20444;-83
2023/07/11 03:22:52;;;;;;;7.33;3.37;;;18.90;1.00;;;;;;5000953;28;20679;-83
2023/07/11 03:25:18;;;;;;;5.93;3.07;;;18.90;1.00;;;;;;4997303;28;20322;-83
2023/07/11 03:27:43;;;;;;;6.70;3.40;;;19.00;99.90;;;;;;5000714;28;20192;-84
2023/07/11 03:30:09;;;;;;;5.27;3.10;;;19.10;99.90;;;;;;5002919;28;20637;-83
2023/07/11 03:32:35;;;;;;;13.00;3.87;;;19.10;99.90;;;;;;5010599;28;20226;-82
2023/07/11 03:35:00;;;;;;;5.53;3.33;;;19.20;99.90;;;;;;5009611;28;20711;-83
2023/07/11 03:37:29;;;;;;;6.17;4.00;;;19.20;99.90;;;;;;5006401;28;20206;-84
2023/07/11 03:39:54;;;;;;;9.03;3.93;;;19.20;99.90;;;;;;5005555;28;20226;-83
2023/07/11 03:42:20;;;;;;;5.10;3.73;;;19.20;99.90;;;;;;5008795;28;20462;-82
2023/07/11 03:44:45;;;;;;;4.70;2.83;;;19.10;99.90;;;;;;5005951;28;20194;-83
2023/07/11 03:47:11;;;;;;;4.77;3.23;;;19.10;99.90;;;;;;5006567;28;20205;-83
2023/07/11 03:49:37;;;;;;;4.90;2.97;;;19.10;99.90;;;;;;5001688;28;20219;-83
2023/07/11 03:52:03;;;;;;;13.13;3.20;;;19.20;99.90;;;;;;5003003;28;20208;-83
2023/07/11 03:54:34;;;;;;;3.80;3.17;;;19.20;99.90;;;;;;5000575;28;20187;-84
2023/07/11 03:57:02;;;;;;;5.57;3.00;;;19.20;99.90;;;;;;5006267;28;20453;-84
2023/07/11 03:59:28;;;;;;;5.33;2.87;;;19.30;99.90;;;;;;5004502;28;20479;-84
2023/07/11 04:01:56;;;;;;;10.90;3.43;;;19.30;95.60;;;;;;5008611;28;20977;-83
2023/07/11 04:04:22;;;;;;;6.10;3.13;;;19.40;42.50;;;;;;5008893;28;20187;-83
2023/07/11 04:06:48;;;;;;;5.27;3.40;;;19.40;13.80;;;;;;5004324;28;20442;-83
2023/07/11 04:09:13;;;;;;;4.70;3.30;;;19.40;1.00;;;;;;4996515;28;20196;-83
2023/07/11 04:11:39;;;;;;;4.70;3.10;;;19.40;1.00;;;;;;4999057;28;20207;-83
2023/07/11 04:14:05;;;;;;;6.90;3.10;;;19.50;1.00;;;;;;5003468;28;20190;-81
2023/07/11 04:16:31;;;;;;;5.30;3.10;;;19.60;1.00;;;;;;5000193;28;20575;-83
2023/07/11 04:18:57;;;;;;;6.57;3.03;;;19.60;1.00;;;;;;5001787;28;20483;-83
2023/07/11 04:21:22;;;;;;;5.53;3.30;;;19.70;1.00;;;;;;5000648;28;20285;-83
2023/07/11 04:23:49;;;;;;;5.50;2.93;;;19.70;1.00;;;;;;5000791;28;20273;-83
2023/07/11 04:26:15;;;;;;;6.03;3.40;;;19.70;1.00;;;;;;5000814;28;20196;-82
2023/07/11 04:28:40;;;;;;;4.80;3.03;;;19.80;1.00;;;;;;5003218;28;20453;-85
2023/07/11 04:31:08;;;;;;;5.03;2.80;;;19.90;1.00;;;;;;5003872;28;20212;-83
2023/07/11 04:33:36;;;;;;;4.27;2.90;;;19.90;1.00;;;;;;5005351;28;20194;-84
2023/07/11 04:36:10;;;;;;;4.07;3.20;;;20.00;1.00;;;;;;5001863;28;20864;-83
2023/07/11 04:38:37;;;;;;;4.80;3.13;;;20.00;1.00;;;;;;5003941;28;20959;-84
2023/07/11 04:41:04;;;;;;;7.33;3.20;;;20.00;1.00;;;;;;5003218;28;20446;-83
2023/07/11 04:43:39;;;;;;;7.13;3.40;;;20.10;1.00;;;;;;5009906;28;20451;-84
2023/07/11 04:46:08;;;;;;;4.30;3.47;;;20.10;1.00;;;;;;5002294;28;20440;-83
2023/07/11 04:48:34;;;;;;;5.03;3.10;;;20.20;1.00;;;;;;5003252;28;20529;-83
2023/07/11 04:51:06;;;;;;;8.90;3.87;;;20.30;1.00;;;;;;5000876;28;20451;-83
2023/07/11 04:53:32;;;;;;;8.60;3.17;;;20.30;1.00;;;;;;5001357;28;20456;-84
2023/07/11 04:56:00;;;;;;;6.10;3.77;;;20.40;1.00;;;;;;4999967;28;20489;-83
2023/07/11 04:58:29;;;;;;;6.23;3.27;;;20.50;1.00;;;;;;5004412;28;20898;-83
2023/07/11 05:01:00;;;;;;;6.43;3.00;;;20.60;1.00;;;;;;5009488;28;20452;-83
2023/07/11 05:03:34;;;;;;;6.00;3.00;;;20.60;99.90;;;;;;5000115;28;21011;-81
2023/07/11 05:06:02;;;;;;;7.17;3.10;;;20.70;99.90;;;;;;5004246;28;20531;-82
2023/07/11 05:08:31;;;;;;;7.97;3.20;;;20.80;99.90;;;;;;5001527;28;20452;-83
2023/07/11 05:11:15;;;;;;;5.53;2.90;;;20.90;99.90;;;;;;5007372;28;20484;-83
2023/07/11 05:13:43;;;;;;;7.43;3.00;;;21.00;99.90;;;;;;5007432;28;20445;-83
2023/07/11 05:16:14;;;;;;;7.27;3.47;;;21.10;99.90;;;;;;5001207;28;20496;-83
2023/07/11 05:18:40;;;;;;;5.03;3.23;;;21.20;99.90;;;;;;5002466;28;20466;-83
2023/07/11 05:21:07;;;;;;;6.23;2.70;;;21.30;99.90;;;;;;4997341;28;20477;-83
2023/07/11 05:23:33;;;;;;;6.30;2.93;;;21.30;99.90;;;;;;5008378;28;20442;-83
2023/07/11 05:25:58;;;;;;;4.70;3.07;;;21.40;99.90;;;;;;5009859;28;20443;-84
2023/07/11 05:28:27;;;;;;;8.63;3.60;;;21.50;99.90;;;;;;5005066;28;21194;-83
2023/07/11 05:30:53;;;;;;;5.43;3.07;;;21.70;99.90;;;;;;5009003;28;20196;-83
2023/07/11 05:33:20;;;;;;;5.73;3.00;;;21.80;99.90;;;;;;5003859;28;20442;-84
2023/07/11 05:38:54;;;;;;;6.40;2.90;;;22.00;99.90;;;;;;4999988;28;20506;-84
2023/07/11 05:41:20;;;;;;;5.70;3.30;;;22.10;99.90;;;;;;5002636;28;20467;-85
2023/07/11 05:43:51;;;;;;;7.23;3.00;;;22.30;99.90;;;;;;5007988;28;20190;-84
2023/07/11 05:46:17;;;;;;;9.27;3.03;;;22.40;99.90;;;;;;5009412;28;20229;-84
2023/07/11 05:48:42;;;;;;;5.57;2.93;;;22.60;99.90;;;;;;5008580;28;20632;-83
2023/07/11 05:51:11;;;;;;;4.13;3.43;;;22.70;99.90;;;;;;5009958;28;20273;-84
2023/07/11 05:53:37;;;;;;;5.83;2.83;;;22.80;99.90;;;;;;5007804;28;20185;-84
2023/07/11 05:56:03;;;;;;;6.83;3.30;;;23.00;99.90;;;;;;5008994;28;21757;-84
2023/07/11 05:58:30;;;;;;;6.17;3.40;;;23.10;99.90;;;;;;5003260;28;21002;-85
2023/07/11 06:00:57;;;;;;;5.93;2.80;;;23.20;99.90;;;;;;5006654;28;20440;-84
2023/07/11 06:03:23;;;;;;;7.37;4.53;;;23.40;99.90;;;;;;5001338;28;20665;-83
2023/07/11 06:05:49;;;;;;;5.20;2.90;;;23.60;99.90;;;;;;5001850;28;20440;-83
2023/07/11 06:08:15;;;;;;;3.60;2.83;;;24.00;99.90;;;;;;5004108;28;20438;-84
2023/07/11 06:10:42;;;;;;;4.13;2.80;;;24.40;99.90;;;;;;4998541;28;20493;-85
2023/07/11 06:13:08;;;;;;;8.50;2.80;;;25.30;99.90;;;;;;5003104;28;20204;-83
2023/07/11 06:15:33;;;;;;;4.27;3.00;;;27.30;99.90;;;;;;4997779;28;20454;-83
2023/07/11 06:17:59;;;;;;;7.07;3.00;;;30.70;99.90;;;;;;4997457;28;21257;-84
2023/07/11 06:20:25;;;;;;;4.07;2.70;;;33.70;99.90;;;;;;4998743;28;20690;-84
2023/07/11 06:22:50;;;;;;;6.00;2.30;;;36.10;99.90;;;;;;4998785;28;20631;-83
2023/07/11 06:25:16;;;;;;;7.73;2.10;;;38.10;99.90;;;;;;4993171;28;20187;-83
2023/07/11 06:27:41;;;;;;;5.23;2.17;;;39.70;92.00;;;;;;5001648;28;20229;-84
2023/07/11 06:30:07;;;;;;;5.00;2.33;;;40.30;77.70;;;;;;5000211;28;20660;-84
2023/07/11 06:32:33;;;;;;;4.20;2.17;;;42.10;59.50;;;;;;4994815;28;20207;-84
2023/07/11 06:34:58;;;;;;;5.23;2.20;;;43.60;50.60;;;;;;4996474;28;20444;-85
2023/07/11 06:37:24;;;;;;;4.73;2.60;;;44.50;40.80;;;;;;5002816;28;20189;-83
2023/07/11 06:39:49;;;;;;;6.37;2.53;;;45.70;31.40;;;;;;4998143;28;20813;-84
2023/07/11 06:42:15;;;;;;;9.43;2.70;;;46.30;25.40;;;;;;4998158;28;21143;-83
2023/07/11 06:44:42;;;;;;;10.00;2.33;;;47.20;21.80;;;;;;4995888;28;20183;-84
2023/07/11 06:47:08;;;;;;;5.47;2.40;;;48.10;17.20;;;;;;4991487;28;20187;-83
2023/07/11 06:49:34;;;;;;;11.13;2.70;;;48.60;11.20;;;;;;4995423;28;20538;-84
2023/07/11 06:51:59;;;;;;;5.47;2.03;;;49.40;8.20;;;;;;5000106;28;20202;-83
2023/07/11 06:54:25;;;;;;;4.07;1.80;;;50.40;4.20;;;;;;4994557;28;20211;-83
2023/07/11 06:56:54;;;;;;;7.50;2.20;;;51.50;1.00;;;;;;4993211;28;20194;-84
2023/07/11 06:59:20;;;;;;;3.20;1.97;;;52.40;1.00;;;;;;4998843;28;20171;-84
2023/07/11 07:01:45;;;;;;;3.63;1.90;;;53.10;1.00;;;;;;4995124;28;20271;-84
2023/07/11 07:04:13;;;;;;;5.50;2.03;;;52.40;1.00;;;;;;5000702;28;20185;-83
2023/07/11 07:06:42;;;;;;;3.20;2.30;;;52.30;1.00;;;;;;4996769;28;20205;-84
2023/07/11 07:09:09;;;;;;;7.60;2.03;;;52.90;1.00;;;;;;4999063;28;20217;-85
2023/07/11 07:11:35;;;;;;;2.65;1.80;;;53.60;1.00;;;;;;5003240;28;20210;-84
2023/07/11 07:14:01;;;;;;;2.63;1.95;;;54.30;1.00;;;;;;5000823;28;21148;-83
2023/07/11 07:16:28;;;;;;;2.17;1.80;;;54.60;1.00;;;;;;4999097;28;20225;-84
2023/07/11 07:18:54;;;;;;;2.95;2.15;;;55.00;1.00;;;;;;4996562;28;20750;-83
2023/07/11 07:21:20;;;;;;;3.70;2.15;;;55.40;1.00;;;;;;5007164;28;20289;-84
2023/07/11 07:23:45;;;;;;;4.57;2.45;;;55.80;1.00;;;;;;5003943;28;20252;-84
2023/07/11 07:26:11;;;;;;;5.22;2.03;;;56.20;1.00;;;;;;5007524;28;20277;-84
2023/07/11 07:28:37;;;;;;;3.75;1.90;;;55.70;1.00;;;;;;5005849;28;20206;-83
2023/07/11 07:31:05;;;;;;;4.93;2.25;;;56.00;1.00;;;;;;5001740;28;20174;-84
2023/07/11 07:33:31;;;;;;;2.63;1.98;;;55.20;1.00;;;;;;5007035;28;20229;-84
2023/07/11 07:36:05;;;;;;;4.85;2.10;;;54.50;1.00;;;;;;5006867;28;20179;-84
2023/07/11 07:38:30;;;;;;;5.35;1.90;;;54.60;1.00;;;;;;5004125;28;20645;-84
2023/07/11 07:40:58;;;;;;;7.67;2.70;;;54.50;1.00;;;;;;5008581;28;20201;-84
2023/07/11 07:43:24;;;;;;;7.15;2.63;;;53.50;1.00;;;;;;5005500;28;20269;-84
2023/07/11 07:45:51;;;;;;;3.63;1.63;;;54.30;1.00;;;;;;5006365;28;20329;-83
2023/07/11 07:48:18;;;;;;;4.82;2.40;;;55.40;1.00;;;;;;5007859;28;20567;-84
2023/07/11 07:50:43;;;;;;;4.15;2.08;;;56.00;1.00;;;;;;5006414;28;20182;-84
2023/07/11 07:53:10;;;;;;;4.70;2.78;;;56.20;1.00;;;;;;5007832;28;20412;-84
2023/07/11 07:55:37;;;;;;;4.43;2.38;;;56.40;1.00;;;;;;5007928;28;20182;-84
2023/07/11 07:58:02;;;;;;;7.82;1.92;;;57.10;1.00;;;;;;5003906;28;20187;-84
2023/07/11 08:00:28;;;;;;;3.80;2.05;;;57.30;1.00;;;;;;5007178;28;20183;-83
2023/07/11 08:02:53;;;;;;;2.97;1.88;;;56.90;1.00;;;;;;5005935;28;20234;-82
2023/07/11 08:05:20;;;;;;;3.17;1.63;;;56.00;1.00;;;;;;5004229;28;20647;-84
2023/07/11 08:07:49;;;;;;;3.00;1.80;;;55.30;1.00;;;;;;5005600;28;20182;-83
2023/07/11 08:10:18;;;;;;;2.50;2.00;;;54.40;1.00;;;;;;5009682;28;20305;-83
2023/07/11 08:12:44;;;;;;;5.57;1.60;;;53.60;1.00;;;;;;5002364;28;20199;-83
2023/07/11 08:15:11;;;;;;;12.43;2.43;;;53.60;1.00;;;;;;5008937;28;20743;-83
2023/07/11 08:17:38;;;;;;;5.63;2.07;;;52.20;1.00;;;;;;5012632;28;20195;-81
2023/07/11 08:20:04;;;;;;;5.77;2.03;;;52.70;1.00;;;;;;5016204;28;20710;-84
2023/07/11 08:22:30;;;;;;;3.70;1.70;;;53.40;1.00;;;;;;5016524;28;20684;-83
2023/07/11 08:24:55;;;;;;;6.15;2.00;;;54.30;1.00;;;;;;5017129;28;20216;-82
2023/07/11 08:27:23;;;;;;;4.63;1.88;;;54.80;1.00;;;;;;5010590;28;20344;-83
2023/07/11 08:29:48;;;;;;;7.43;1.97;;;55.30;1.00;;;;;;5010340;28;20210;-82
2023/07/11 08:35:15;;;;;;;4.67;1.70;;;53.10;1.00;;;;;;4990240;28;20182;-82
2023/07/11 08:38:11;;;;;;;4.40;1.90;;;53.00;1.00;;;;;;4990673;28;20183;-83
2023/07/11 08:40:42;;;;;;;3.30;1.90;;;53.00;1.00;;;;;;5000070;28;20579;-82
2023/07/11 08:43:15;;;;;;;3.33;1.83;;;52.10;1.00;;;;;;4993945;28;20458;-83
2023/07/11 08:45:57;;;;;;;4.40;1.93;;;50.20;1.00;;;;;;4996736;28;20455;-83
2023/07/11 08:48:36;;;;;;;5.67;1.80;;;47.90;1.00;;;;;;4995336;28;20447;-82
2023/07/11 08:51:06;;;;;;;7.27;1.97;;;45.90;1.00;;;;;;4996163;28;20446;-82
2023/07/11 08:53:40;;;;;;;4.93;2.37;;;44.00;1.00;;;;;;5003653;28;20530;-83
2023/07/11 08:56:38;;;;;;;3.77;2.00;;;42.30;1.00;;;;;;5006138;28;20437;-82
2023/07/11 08:59:37;;;;;;;8.40;2.30;;;40.90;1.00;;;;;;4981963;28;20470;-82
2023/07/11 09:02:09;;;;;;;3.47;2.00;;;39.90;1.00;;;;;;4982038;28;20483;-82
2023/07/11 09:04:58;;;;;;;3.87;2.43;;;39.70;1.00;;;;;;4999096;28;20443;-82
2023/07/11 09:07:38;;;;;;;6.40;2.40;;;41.70;1.00;;;;;;4994365;28;20450;-83
2023/07/11 09:10:36;;;;;;;4.87;2.20;;;43.80;1.00;;;;;;4990495;28;20443;-82
2023/07/11 09:13:10;;;;;;;5.00;2.00;;;45.90;1.00;;;;;;4992064;28;20446;-81
2023/07/11 09:16:05;;;;;;;2.70;1.60;;;47.10;1.00;;;;;;5003925;28;20573;-82
2023/07/11 09:18:51;;;;;;;6.10;1.73;;;47.60;1.00;;;;;;4996701;28;20545;-83
2023/07/11 09:21:26;;;;;;;4.03;2.23;;;46.50;1.00;;;;;;4995523;28;20485;-82
2023/07/11 09:24:20;;;;;;;4.47;1.83;;;47.50;1.00;;;;;;4998136;28;20438;-82
2023/07/11 09:26:49;;;;;;;4.90;2.07;;;46.90;1.00;;;;;;4997796;28;20411;-83
2023/07/11 09:29:16;;;;;;;7.10;2.43;;;47.60;1.00;;;;;;4989858;28;20423;-83
2023/07/11 09:31:55;;;;;;;6.60;1.70;;;47.00;1.00;;;;;;4992906;28;20507;-82
2023/07/11 09:34:32;;;;;;;2.83;2.00;;;46.70;1.00;;;;;;4997195;28;20430;-82
2023/07/11 09:37:01;;;;;;;5.23;1.77;;;48.30;1.00;;;;;;4997913;28;20480;-82
2023/07/11 09:39:44;;;;;;;4.30;2.20;;;49.30;1.00;;;;;;4995888;28;20462;-82
2023/07/11 09:42:41;;;;;;;10.00;2.60;;;49.40;1.00;;;;;;4998001;28;20518;-83
2023/07/11 09:45:15;;;;;;;3.57;1.90;;;49.70;1.00;;;;;;4986605;28;20426;-83
2023/07/11 09:47:43;;;;;;;4.43;1.93;;;50.80;1.00;;;;;;4991765;28;20422;-82
2023/07/11 09:50:47;;;;;;;5.53;2.43;;;51.40;1.00;;;;;;4990298;28;20509;-83
2023/07/11 09:53:26;;;;;;;3.53;2.03;;;51.40;1.00;;;;;;4994989;28;20509;-83
2023/07/11 09:56:03;;;;;;;4.27;1.60;;;51.50;1.00;;;;;;4997879;28;20484;-84
2023/07/11 09:58:32;;;;;;;6.93;1.97;;;51.80;1.00;;;;;;4998367;28;20457;-82
2023/07/11 10:01:04;;;;;;;4.50;1.73;;;51.70;1.00;;;;;;4996169;28;20422;-84
2023/07/11 10:03:34;;;;;;;3.43;2.10;;;51.30;1.00;;;;;;4992217;28;20433;-84
2023/07/11 10:06:01;;;;;;;2.50;1.30;;;51.50;1.00;;;;;;4996983;28;20414;-83
2023/07/11 10:08:33;;;;;;;5.43;2.03;;;51.30;1.00;;;;;;4994828;28;20501;-82
2023/07/11 10:11:04;;;;;;;5.73;2.70;;;51.10;1.00;;;;;;4998256;28;20418;-82
2023/07/11 10:13:30;;;;;;;2.97;1.70;;;50.60;1.00;;;;;;4996897;28;20425;-82
2023/07/11 10:15:58;;;;;;;4.37;2.00;;;50.40;1.00;;;;;;4989835;28;20497;-83
2023/07/11 10:18:35;;;;;;;5.90;2.40;;;49.70;1.00;;;;;;4997367;28;20458;-83
2023/07/11 10:21:23;;;;;;;6.73;1.97;;;48.00;1.00;;;;;;4994738;28;20848;-83
2023/07/11 10:23:51;;;;;;;4.37;2.43;;;47.40;1.00;;;;;;4992947;28;20478;-83
2023/07/11 10:26:23;;;;;;;7.40;2.33;;;47.80;1.00;;;;;;4995253;28;20435;-83
2023/07/11 10:28:55;;;;;;;4.07;2.07;;;48.10;1.00;;;;;;4986853;28;20426;-83
2023/07/11 10:31:26;;;;;;;4.63;2.20;;;48.10;1.00;;;;;;4988925;28;20473;-83
2023/07/11 10:33:55;;;;;;;4.33;1.80;;;48.20;1.00;;;;;;4994057;28;20465;-82
2023/07/11 10:36:33;;;;;;;5.70;2.00;;;48.90;1.00;;;;;;4993934;28;20434;-83
2023/07/11 10:39:13;;;;;;;7.33;1.70;;;49.30;1.00;;;;;;4993322;28;20470;-83
2023/07/11 10:41:58;;;;;;;2.57;1.53;;;49.60;1.00;;;;;;4992684;28;20465;-83
2023/07/11 10:44:30;;;;;;;3.13;1.70;;;49.80;1.00;;;;;;4984823;28;20453;-83
2023/07/11 10:46:56;;;;;;;8.27;1.80;;;49.90;1.00;;;;;;4993837;28;20441;-83
2023/07/11 10:49:28;;;;;;;5.20;2.20;;;49.80;1.00;;;;;;4991986;28;20442;-83
2023/07/11 10:52:22;;;;;;;2.30;1.60;;;49.30;1.00;;;;;;4988539;28;20465;-83
2023/07/11 10:55:13;;;;;;;2.93;1.70;;;49.10;1.00;;;;;;4987918;28;20943;-84
2023/07/11 10:57:42;;;;;;;5.40;2.10;;;49.00;1.00;;;;;;4992030;28;20963;-83
2023/07/11 11:00:22;;;;;;;4.57;2.07;;;48.70;1.00;;;;;;4991174;28;20550;-83
2023/07/11 11:03:20;;;;;;;6.60;1.43;;;48.90;1.00;;;;;;5004118;28;20460;-83
2023/07/11 11:06:02;;;;;;;2.13;1.73;;;48.80;1.00;;;;;;4986122;28;20425;-82
2023/07/11 11:08:48;;;;;;;3.43;1.77;;;48.20;1.00;;;;;;4993219;28;20445;-84
2023/07/11 11:11:36;;;;;;;3.40;2.30;;;48.40;1.00;;;;;;4995097;28;20442;-83
2023/07/11 11:14:17;;;;;;;2.40;1.77;;;48.70;1.00;;;;;;4994471;28;20433;-83
2023/07/11 11:17:01;;;;;;;4.07;1.77;;;48.20;1.00;;;;;;4994456;28;20485;-84
2023/07/11 11:19:29;;;;;;;3.13;1.83;;;48.20;1.00;;;;;;4990650;28;20501;-83
2023/07/11 11:22:07;;;;;;;2.73;1.83;;;48.50;1.00;;;;;;5002753;28;20478;-83
2023/07/11 11:24:44;;;;;;;3.50;1.90;;;48.60;1.00;;;;;;4994433;28;20426;-83
2023/07/11 11:27:36;;;;;;;2.53;1.73;;;48.50;1.00;;;;;;4986754;28;20442;-83
2023/07/11 11:30:26;;;;;;;2.70;2.00;;;48.40;1.00;;;;;;4992273;28;20454;-83
2023/07/11 11:33:18;;;;;;;4.63;1.90;;;48.30;1.00;;;;;;4988263;28;20514;-83
2023/07/11 11:35:49;;;;;;;2.87;1.70;;;47.70;1.00;;;;;;4965342;28;20430;-83
2023/07/11 11:38:28;;;;;;;4.70;2.07;;;47.90;1.00;;;;;;4994153;28;20429;-83
2023/07/11 11:40:58;;;;;;;3.40;1.53;;;47.60;1.00;;;;;;4987523;28;20446;-82
2023/07/11 11:43:26;;;;;;;3.53;2.23;;;47.30;1.00;;;;;;4994713;28;20426;-82
2023/07/11 11:45:53;;;;;;;2.53;1.40;;;47.00;1.00;;;;;;4992008;28;20855;-83
2023/07/11 11:48:22;;;;;;;4.00;1.60;;;46.90;1.00;;;;;;5002957;28;20490;-83
2023/07/11 11:50:49;;;;;;;3.17;1.97;;;46.80;1.00;;;;;;4993867;28;20430;-83
2023/07/11 11:53:30;;;;;;;3.37;1.83;;;46.40;1.00;;;;;;5006760;28;20421;-83
2023/07/11 11:56:07;;;;;;;7.13;2.10;;;45.90;1.00;;;;;;4999313;28;21013;-83
2023/07/11 11:58:39;;;;;;;4.23;2.00;;;45.90;1.00;;;;;;5000216;28;20466;-82
2023/07/11 12:01:04;;;;;;;2.03;1.70;;;46.20;1.00;;;;;;4995316;28;20939;-82
2023/07/11 12:03:44;;;;;;;6.07;1.97;;;46.00;1.00;;;;;;5001311;28;20411;-83
2023/07/11 12:06:35;;;;;;;10.53;2.23;;;45.90;1.00;;;;;;4997671;28;20278;-82
2023/07/11 12:09:15;;;;;;;2.40;1.60;;;45.60;1.00;;;;;;4994422;28;20418;-82
2023/07/11 12:12:01;;;;;;;4.23;1.73;;;45.60;1.00;;;;;;4999719;28;20533;-82
2023/07/11 12:14:33;;;;;;;2.10;1.60;;;45.40;1.00;;;;;;5001193;28;20427;-83
2023/07/11 12:16:59;;;;;;;3.17;1.90;;;45.40;1.00;;;;;;4993613;28;20431;-82
2023/07/11 12:19:37;;;;;;;3.47;1.40;;;45.30;1.00;;;;;;4998739;28;20493;-83
2023/07/11 12:22:06;;;;;;;5.57;1.67;;;45.20;1.00;;;;;;4994437;28;20234;-83
2023/07/11 12:24:32;;;;;;;3.40;1.93;;;45.20;1.00;;;;;;4999791;28;20426;-83
2023/07/11 12:27:11;;;;;;;4.60;1.80;;;44.90;1.00;;;;;;4999617;28;20931;-82
2023/07/11 12:29:51;;;;;;;5.03;2.40;;;44.70;1.00;;;;;;4999654;28;20191;-83
2023/07/11 12:32:32;;;;;;;4.37;1.90;;;44.50;1.00;;;;;;5001996;28;20481;-82
2023/07/11 12:35:08;;;;;;;5.10;1.60;;;44.40;1.00;;;;;;4993984;28;20469;-82
2023/07/11 12:38:00;;;;;;;3.67;1.90;;;43.80;1.00;;;;;;5000704;28;20441;-81
2023/07/11 12:40:47;;;;;;;2.63;1.60;;;43.30;1.00;;;;;;4998917;28;20460;-82
2023/07/11 12:43:21;;;;;;;3.30;1.80;;;43.50;1.00;;;;;;5011217;28;20430;-83
2023/07/11 12:45:54;;;;;;;4.60;2.60;;;43.60;1.00;;;;;;5001082;28;20876;-82
2023/07/11 12:48:26;;;;;;;3.37;1.87;;;43.60;1.00;;;;;;5000959;28;20532;-83
2023/07/11 12:50:58;;;;;;;6.30;2.00;;;43.00;1.00;;;;;;4992564;28;20430;-82
2023/07/11 12:53:24;;;;;;;4.20;1.97;;;42.70;1.00;;;;;;4998828;28;20446;-82
2023/07/11 12:55:53;;;;;;;2.23;1.90;;;42.50;1.00;;;;;;4993242;28;20427;-82
2023/07/11 12:58:23;;;;;;;4.23;2.10;;;42.30;1.00;;;;;;4997547;28;20191;-83
2023/07/11 13:00:51;;;;;;;5.27;2.30;;;42.30;1.00;;;;;;4998537;28;20501;-82
2023/07/11 13:03:33;;;;;;;3.40;2.23;;;42.20;1.00;;;;;;4997649;28;20423;-82
2023/07/11 13:06:02;;;;;;;15.33;2.30;;;42.10;1.00;;;;;;4992044;28;20983;-81
2023/07/11 13:08:33;;;;;;;3.23;2.20;;;42.00;1.00;;;;;;4998726;28;20939;-82
2023/07/11 13:11:02;;;;;;;2.93;1.70;;;41.80;1.00;;;;;;4999609;28;20936;-82
2023/07/11 13:13:29;;;;;;;3.40;1.80;;;41.60;1.00;;;;;;4996898;28;20447;-83
2023/07/11 13:16:01;;;;;;;3.37;1.70;;;41.60;1.00;;;;;;4999712;28;20433;-83
2023/07/11 13:18:37;;;;;;;3.90;2.57;;;41.60;1.00;;;;;;4993746;28;20887;-82